createdAt,value
2018-04-17T03:48:30.222Z,3
2018-04-17T03:55:02.583Z,7
2018-04-17T03:57:30.772Z,10
2018-04-17T03:59:30.898Z,13
2018-04-17T04:01:00.981Z,17
2018-04-17T04:02:31.133Z,20
2018-04-17T04:03:31.141Z,23
2018-04-17T04:04:31.200Z,27
2018-04-17T04:05:31.281Z,30
2018-04-17T04:06:01.326Z,33
2018-04-17T04:07:01.338Z,37
2018-04-17T04:07:31.444Z,40
2018-04-17T04:08:01.611Z,43
2018-04-17T04:09:01.461Z,47
2018-04-17T04:09:31.574Z,50
2018-04-17T04:10:01.527Z,53
2018-04-17T04:10:31.644Z,57
2018-04-17T04:11:01.592Z,60
2018-04-17T04:11:31.693Z,67
2018-04-17T04:12:01.662Z,70
2018-04-17T04:12:31.779Z,73
2018-04-17T04:13:01.709Z,80
2018-04-17T04:13:31.840Z,83
2018-04-17T04:14:01.809Z,87
2018-04-17T04:14:31.929Z,93
2018-04-17T04:15:01.833Z,97
2018-04-17T04:15:31.954Z,103
2018-04-17T04:16:01.957Z,110
2018-04-17T04:16:31.993Z,117
2018-04-17T04:17:01.969Z,120
2018-04-17T04:17:32.039Z,127
2018-04-17T04:18:02.053Z,133
2018-04-17T04:18:32.119Z,140
2018-04-17T04:19:02.125Z,147
2018-04-17T04:19:32.203Z,153
2018-04-17T04:20:02.150Z,160
2018-04-17T04:20:32.232Z,167
2018-04-17T04:21:02.205Z,173
2018-04-17T04:21:32.295Z,183
2018-04-17T04:22:02.281Z,190
2018-04-17T04:22:32.356Z,197
2018-04-17T04:23:02.360Z,203
2018-04-17T04:23:32.411Z,213
2018-04-17T04:24:02.445Z,217
2018-04-17T04:24:32.483Z,223
2018-04-17T04:25:02.473Z,233
2018-04-17T04:25:32.502Z,240
2018-04-17T04:26:02.525Z,250
2018-04-17T04:26:32.599Z,257
2018-04-17T04:27:02.604Z,267
2018-04-17T04:27:32.706Z,273
2018-04-17T04:28:02.632Z,283
2018-04-17T04:28:32.726Z,293
2018-04-17T04:29:02.721Z,303
2018-04-17T04:29:32.746Z,310
2018-04-17T04:30:03.021Z,320
2018-04-17T04:30:32.816Z,330
2018-04-17T04:31:02.846Z,340
2018-04-17T04:31:32.866Z,350
2018-04-17T04:32:02.947Z,360
2018-04-17T04:32:32.927Z,370
2018-04-17T04:33:02.949Z,380
2018-04-17T04:33:32.997Z,390
2018-04-17T04:34:03.019Z,400
2018-04-17T04:34:33.045Z,410
2018-04-17T04:35:03.068Z,423
2018-04-17T04:35:33.128Z,430
2018-04-17T04:36:03.126Z,440
2018-04-17T04:36:33.172Z,450
2018-04-17T04:37:03.199Z,463
2018-04-17T04:37:33.229Z,473
2018-04-17T04:38:03.246Z,487
2018-04-17T04:38:33.369Z,497
2018-04-17T04:39:03.348Z,510
2018-04-17T04:39:33.407Z,523
2018-04-17T04:40:03.427Z,533
2018-04-17T04:40:33.448Z,547
2018-04-17T04:41:03.510Z,560
2018-04-17T04:41:33.501Z,573
2018-04-17T04:42:03.496Z,587
2018-04-17T04:42:33.570Z,600
2018-04-17T04:43:03.608Z,610
2018-04-17T04:43:33.676Z,627
2018-04-17T04:44:03.678Z,640
2018-04-17T04:44:33.676Z,647
2018-04-17T04:45:03.721Z,663
2018-04-17T04:45:33.723Z,677
2018-04-17T04:46:04.000Z,690
2018-04-17T04:46:33.785Z,703
2018-04-17T04:47:03.879Z,720
2018-04-17T04:47:33.847Z,733
2018-04-17T04:48:03.867Z,750
2018-04-17T04:48:33.903Z,767
2018-04-17T04:49:03.927Z,783
2018-04-17T04:49:33.969Z,797
2018-04-17T04:50:04.002Z,813
2018-04-17T04:50:34.031Z,830
2018-04-17T04:51:04.080Z,850
2018-04-17T04:51:34.091Z,863
2018-04-17T04:52:04.205Z,880
2018-04-17T04:52:34.158Z,900
2018-04-17T04:53:04.214Z,923
2018-04-17T04:53:34.220Z,947
2018-04-17T04:54:04.233Z,970
2018-04-17T04:54:34.309Z,993
2018-04-17T04:55:04.454Z,1013
2018-04-17T04:55:34.376Z,1037
2018-04-17T04:56:04.503Z,1057
2018-04-17T04:56:34.434Z,1073
2018-04-17T04:57:04.445Z,1093
2018-04-17T04:57:34.514Z,1110
2018-04-17T04:58:04.527Z,1120
2018-04-17T04:58:34.599Z,1127
2018-04-17T04:59:04.588Z,1140
2018-04-17T04:59:34.586Z,1157
2018-04-17T05:00:04.683Z,1177
2018-04-17T05:00:34.697Z,1197
2018-04-17T05:01:04.783Z,1217
2018-04-17T05:01:34.740Z,1240
2018-04-17T05:02:04.768Z,1260
2018-04-17T05:02:34.804Z,1280
2018-04-17T05:03:04.812Z,1300
2018-04-17T05:03:34.915Z,1323
2018-04-17T05:04:04.931Z,1350
2018-04-17T05:04:34.933Z,1373
2018-04-17T05:05:04.962Z,1397
2018-04-17T05:05:34.995Z,1413
2018-04-17T05:06:05.060Z,1430
2018-04-17T05:06:35.079Z,1447
2018-04-17T05:07:05.070Z,1463
2018-04-17T05:07:35.113Z,1483
2018-04-17T05:08:05.148Z,1500
2018-04-17T05:08:35.208Z,1523
2018-04-17T05:09:05.211Z,1547
2018-04-17T05:09:35.199Z,1570
2018-04-17T05:10:05.275Z,1593
2018-04-17T05:10:35.315Z,1617
2018-04-17T05:11:05.310Z,1643
2018-04-17T05:11:35.384Z,1673
2018-04-17T05:12:05.365Z,1703
2018-04-17T05:12:35.407Z,1730
2018-04-17T05:13:05.437Z,1757
2018-04-17T05:13:35.505Z,1773
2018-04-17T05:14:05.486Z,1783
2018-04-17T05:14:35.548Z,1790
2018-04-17T05:15:05.532Z,1793
2018-04-17T05:15:35.629Z,1800
2018-04-17T05:16:05.626Z,1810
2018-04-17T05:16:35.635Z,1827
2018-04-17T05:17:05.860Z,1847
2018-04-17T05:17:35.689Z,1870
2018-04-17T05:18:05.722Z,1893
2018-04-17T05:18:35.756Z,1917
2018-04-17T05:19:05.813Z,1937
2018-04-17T05:19:35.820Z,1953
2018-04-17T05:20:05.838Z,1973
2018-04-17T05:20:35.890Z,1990
2018-04-17T05:21:05.927Z,2000
2018-04-17T05:21:35.939Z,2013
2018-04-17T05:22:05.997Z,2023
2018-04-17T05:22:36.001Z,2033
2018-04-17T05:23:06.029Z,2050
2018-04-17T05:23:36.068Z,2063
2018-04-17T05:24:06.090Z,2080
2018-04-17T05:24:36.197Z,2093
2018-04-17T05:25:06.211Z,2110
2018-04-17T05:25:36.201Z,2120
2018-04-17T05:26:06.280Z,2133
2018-04-17T05:26:36.269Z,2140
2018-04-17T05:27:06.324Z,2153
2018-04-17T05:27:36.369Z,2167
2018-04-17T05:28:06.347Z,2180
2018-04-17T05:28:36.439Z,2197
2018-04-17T05:29:06.420Z,2213
2018-04-17T05:29:36.461Z,2227
2018-04-17T05:30:06.516Z,2243
2018-04-17T05:30:36.566Z,2253
2018-04-17T05:31:06.568Z,2267
2018-04-17T05:31:36.594Z,2287
2018-04-17T05:32:06.601Z,2297
2018-04-17T05:32:36.622Z,2310
2018-04-17T05:33:06.636Z,2320
2018-04-17T05:33:36.714Z,2333
2018-04-17T05:34:06.739Z,2337
2018-04-17T05:35:06.794Z,2340
2018-04-17T05:35:36.807Z,2347
2018-04-17T05:36:06.875Z,2343
2018-04-17T05:36:37.797Z,2340
2018-04-17T05:37:06.881Z,2337
2018-04-17T05:38:06.950Z,2333
2018-04-17T05:39:07.008Z,2337
2018-04-17T05:39:37.053Z,2343
2018-04-17T05:40:07.092Z,2347
2018-04-17T05:40:37.107Z,2353
2018-04-17T05:41:37.211Z,2357
2018-04-17T05:42:07.191Z,2367
2018-04-17T05:42:37.271Z,2380
2018-04-17T05:43:07.302Z,2410
2018-04-17T05:43:37.292Z,2437
2018-04-17T05:44:07.376Z,2450
2018-04-17T05:44:37.358Z,2460
2018-04-17T05:45:07.444Z,2470
2018-04-17T05:45:37.468Z,2480
2018-04-17T05:46:07.451Z,2477
2018-04-17T05:46:37.552Z,2470
2018-04-17T05:47:07.534Z,2483
2018-04-17T05:47:37.582Z,2503
2018-04-17T05:48:07.710Z,2513
2018-04-17T05:48:37.637Z,2540
2018-04-17T05:49:07.653Z,2593
2018-04-17T05:49:37.700Z,2653
2018-04-17T05:50:07.754Z,2673
2018-04-17T05:50:37.770Z,2683
2018-04-17T05:51:07.787Z,2687
2018-04-17T05:51:37.866Z,2683
2018-04-17T05:52:08.250Z,2663
2018-04-17T05:52:37.915Z,2650
2018-04-17T05:53:07.907Z,2660
2018-04-17T05:53:37.912Z,2687
2018-04-17T05:54:07.962Z,2720
2018-04-17T05:54:38.014Z,2750
2018-04-17T05:55:08.075Z,2780
2018-04-17T05:55:38.073Z,2813
2018-04-17T05:56:08.077Z,2847
2018-04-17T05:56:38.135Z,2890
2018-04-17T05:57:08.198Z,3003
2018-04-17T05:57:38.206Z,3060
2018-04-17T05:58:08.221Z,3090
2018-04-17T05:58:38.249Z,3123
2018-04-17T05:59:08.264Z,3157
2018-04-17T05:59:38.291Z,3193
2018-04-17T06:00:08.431Z,3233
2018-04-17T06:00:38.376Z,3277
2018-04-17T06:01:08.399Z,3317
2018-04-17T06:01:38.440Z,3347
2018-04-17T06:02:08.493Z,3367
2018-04-17T06:02:38.481Z,3373
2018-04-17T06:03:08.512Z,3360
2018-04-17T06:03:38.544Z,3393
2018-04-17T06:04:08.564Z,3417
2018-04-17T06:04:38.591Z,3437
2018-04-17T06:05:08.679Z,3453
2018-04-17T06:05:38.655Z,3480
2018-04-17T06:06:08.720Z,3453
2018-04-17T06:06:38.812Z,3420
2018-04-17T06:07:08.748Z,3407
2018-04-17T06:07:38.780Z,3410
2018-04-17T06:08:08.786Z,3420
2018-04-17T06:08:38.842Z,3447
2018-04-17T06:09:09.027Z,3493
2018-04-17T06:09:38.898Z,3553
2018-04-17T06:10:08.921Z,3620
2018-04-17T06:10:38.954Z,3677
2018-04-17T06:11:09.035Z,3723
2018-04-17T06:11:39.014Z,3763
2018-04-17T06:12:09.029Z,3823
2018-04-17T06:12:39.077Z,4203
2018-04-17T06:13:09.130Z,5280
2018-04-17T06:13:39.243Z,6603
2018-04-17T06:14:09.186Z,7977
2018-04-17T06:14:39.199Z,9333
2018-04-17T06:15:09.260Z,10267
2018-04-17T06:15:39.320Z,10727
2018-04-17T06:16:09.364Z,11467
2018-04-17T06:16:39.379Z,12003
2018-04-17T06:17:09.363Z,12080
2018-04-17T06:17:39.423Z,10973
2018-04-17T06:18:09.428Z,9727
2018-04-17T06:18:39.479Z,8263
2018-04-17T06:19:09.486Z,8270
2018-04-17T06:19:39.549Z,9013
2018-04-17T06:20:09.578Z,9600
2018-04-17T06:20:39.597Z,10167
2018-04-17T06:21:09.622Z,10323
2018-04-17T06:21:39.659Z,10173
2018-04-17T06:22:09.786Z,9870
2018-04-17T06:22:39.700Z,9637
2018-04-17T06:23:09.779Z,10167
2018-04-17T06:23:39.781Z,11040
2018-04-17T06:24:09.769Z,12673
2018-04-17T06:24:39.819Z,13153
2018-04-17T06:25:09.856Z,13217
2018-04-17T06:25:39.903Z,13160
2018-04-17T06:26:10.006Z,13247
2018-04-17T06:26:39.955Z,13350
2018-04-17T06:27:10.010Z,13430
2018-04-17T06:27:40.003Z,12650
2018-04-17T06:28:10.024Z,10737
2018-04-17T06:28:40.081Z,9897
2018-04-17T06:29:10.077Z,7137
2018-04-17T06:29:40.150Z,6663
2018-04-17T06:30:10.190Z,5857
2018-04-17T06:30:40.221Z,6063
2018-04-17T06:31:10.242Z,6303
2018-04-17T06:31:40.325Z,6270
2018-04-17T06:32:10.348Z,6597
2018-04-17T06:32:40.341Z,6887
2018-04-17T06:33:10.357Z,7480
2018-04-17T06:33:40.411Z,7567
2018-04-17T06:34:10.448Z,7800
2018-04-17T06:34:40.471Z,8223
2018-04-17T06:35:10.567Z,8057
2018-04-17T06:35:40.883Z,8160
2018-04-17T06:36:10.572Z,7830
2018-04-17T06:36:40.600Z,9137
2018-04-17T06:37:10.653Z,11917
2018-04-17T06:37:40.633Z,14377
2018-04-17T06:38:10.666Z,14870
2018-04-17T06:38:40.718Z,14357
2018-04-17T06:39:10.693Z,13373
2018-04-17T06:39:40.764Z,13250
2018-04-17T06:40:10.806Z,14317
2018-04-17T06:40:40.801Z,15850
2018-04-17T06:41:10.858Z,14787
2018-04-17T06:41:40.923Z,12457
2018-04-17T06:42:10.948Z,11513
2018-04-17T06:42:40.942Z,11503
2018-04-17T06:43:11.004Z,10977
2018-04-17T06:43:41.051Z,9933
2018-04-17T06:44:11.047Z,10143
2018-04-17T06:44:41.113Z,11483
2018-04-17T06:45:11.102Z,13773
2018-04-17T06:45:41.160Z,15940
2018-04-17T06:46:11.189Z,16357
2018-04-17T06:46:41.197Z,16247
2018-04-17T06:47:11.247Z,15960
2018-04-17T06:47:41.393Z,15360
2018-04-17T06:48:11.298Z,13313
2018-04-17T06:48:41.343Z,11467
2018-04-17T06:49:11.359Z,10880
2018-04-17T06:50:11.410Z,11270
2018-04-17T06:50:41.420Z,11610
2018-04-17T06:51:11.476Z,11793
2018-04-17T06:51:41.505Z,12163
2018-04-17T06:52:11.591Z,13107
2018-04-17T06:52:41.635Z,13820
2018-04-17T06:53:11.574Z,14337
2018-04-17T06:53:41.675Z,13830
2018-04-17T06:54:11.629Z,11980
2018-04-17T06:54:41.669Z,9977
2018-04-17T06:55:11.675Z,8023
2018-04-17T06:55:41.752Z,6970
2018-04-17T06:56:11.745Z,6647
2018-04-17T06:56:41.792Z,6160
2018-04-17T06:57:11.830Z,5867
2018-04-17T06:57:41.846Z,5760
2018-04-17T06:58:11.864Z,6230
2018-04-17T06:58:41.912Z,6830
2018-04-17T06:59:11.924Z,7013
2018-04-17T06:59:41.984Z,7093
2018-04-17T07:00:11.999Z,7113
2018-04-17T07:00:42.079Z,6107
2018-04-17T07:01:12.102Z,6157
2018-04-17T07:01:42.100Z,6293
2018-04-17T07:02:12.132Z,6473
2018-04-17T07:02:42.193Z,7423
2018-04-17T07:03:12.172Z,8697
2018-04-17T07:03:42.248Z,9573
2018-04-17T07:04:12.236Z,10667
2018-04-17T07:04:42.350Z,10013
2018-04-17T07:05:12.413Z,9720
2018-04-17T07:05:42.372Z,9783
2018-04-17T07:06:12.359Z,9630
2018-04-17T07:06:42.452Z,8810
2018-04-17T07:07:12.513Z,8573
2018-04-17T07:07:42.526Z,9583
2018-04-17T07:08:12.484Z,12233
2018-04-17T07:08:42.572Z,12140
2018-04-17T07:09:12.577Z,10430
2018-04-17T07:09:42.657Z,8490
2018-04-17T07:10:12.610Z,7520
2018-04-17T07:10:42.647Z,8363
2018-04-17T07:11:12.693Z,9387
2018-04-17T07:11:42.739Z,12137
2018-04-17T07:12:12.751Z,14430
2018-04-17T07:12:42.859Z,15943
2018-04-17T07:13:12.840Z,14287
2018-04-17T07:13:42.837Z,14227
2018-04-17T07:14:12.850Z,13743
2018-04-17T07:14:42.894Z,14453
2018-04-17T07:15:12.924Z,12893
2018-04-17T07:15:42.962Z,12390
2018-04-17T07:16:12.995Z,10847
2018-04-17T07:16:43.018Z,9743
2018-04-17T07:17:13.096Z,9583
2018-04-17T07:17:43.107Z,11280
2018-04-17T07:18:13.098Z,13390
2018-04-17T07:18:43.164Z,13693
2018-04-17T07:19:13.206Z,15247
2018-04-17T07:19:43.243Z,17677
2018-04-17T07:20:13.217Z,20077
2018-04-17T07:20:43.280Z,20377
2018-04-17T07:21:13.319Z,19310
2018-04-17T07:21:43.336Z,16077
2018-04-17T07:22:13.406Z,13647
2018-04-17T07:22:43.474Z,12343
2018-04-17T07:23:13.415Z,12583
2018-04-17T07:23:43.536Z,13267
2018-04-17T07:24:13.507Z,11700
2018-04-17T07:24:43.542Z,12350
2018-04-17T07:25:13.612Z,13573
2018-04-17T07:25:43.666Z,15010
2018-04-17T07:26:13.615Z,17687
2018-04-17T07:26:43.640Z,22623
2018-04-17T07:27:13.675Z,25290
2018-04-17T07:27:43.788Z,26520
2018-04-17T07:28:13.765Z,25223
2018-04-17T07:28:43.828Z,23147
2018-04-17T07:29:13.826Z,22227
2018-04-17T07:29:43.879Z,23160
2018-04-17T07:30:13.879Z,25363
2018-04-17T07:30:43.934Z,26890
2018-04-17T07:31:13.924Z,27290
2018-04-17T07:31:44.017Z,27520
2018-04-17T07:32:14.097Z,27600
2018-04-17T07:32:44.075Z,27677
2018-04-17T07:33:14.061Z,27613
2018-04-17T07:33:44.090Z,24530
2018-04-17T07:34:14.130Z,20923
2018-04-17T07:34:44.226Z,17267
2018-04-17T07:35:14.221Z,17363
2018-04-17T07:35:44.248Z,18507
2018-04-17T07:36:14.257Z,20430
2018-04-17T07:36:44.310Z,21350
2018-04-17T07:37:14.341Z,21570
2018-04-17T07:37:44.401Z,22127
2018-04-17T07:38:14.345Z,22480
2018-04-17T07:38:44.400Z,21713
2018-04-17T07:39:14.441Z,20187
2018-04-17T07:39:44.476Z,15723
2018-04-17T07:40:14.561Z,12213
2018-04-17T07:40:44.503Z,9653
2018-04-17T07:41:14.517Z,11097
2018-04-17T07:41:44.590Z,8843
2018-04-17T07:42:14.604Z,14023
2018-04-17T07:42:44.648Z,16137
2018-04-17T07:43:14.716Z,15773
2018-04-17T07:43:44.744Z,19200
2018-04-17T07:44:14.700Z,20667
2018-04-17T07:44:44.751Z,23327
2018-04-17T07:45:14.755Z,19633
2018-04-17T07:45:44.822Z,20363
2018-04-17T07:46:14.817Z,16707
2018-04-17T07:46:44.867Z,19907
2018-04-17T07:47:14.940Z,21430
2018-04-17T07:47:44.927Z,24433
2018-04-17T07:48:14.955Z,19007
2018-04-17T07:48:44.987Z,24680
2018-04-17T07:49:15.008Z,26387
2018-04-17T07:49:45.058Z,25537
2018-04-17T07:50:15.114Z,26493
2018-04-17T07:50:45.138Z,25330
2018-04-17T07:51:15.166Z,25850
2018-04-17T07:51:45.211Z,15143
2018-04-17T07:52:15.255Z,17733
2018-04-17T07:52:45.285Z,19123
2018-04-17T07:53:15.333Z,19570
2018-04-17T07:53:45.356Z,18050
2018-04-17T07:54:15.354Z,24753
2018-04-17T07:54:45.419Z,20333
2018-04-17T07:55:15.628Z,24590
2018-04-17T07:55:45.544Z,25170
2018-04-17T07:56:15.454Z,27287
2018-04-17T07:56:45.499Z,25493
2018-04-17T07:57:15.503Z,22763
2018-04-17T07:57:45.660Z,24080
2018-04-17T07:58:15.570Z,26897
2018-04-17T07:58:45.628Z,31483
2018-04-17T07:59:15.658Z,31770
2018-04-17T07:59:45.688Z,32427
2018-04-17T08:00:15.707Z,32490
2018-04-17T08:00:45.727Z,32433
2018-04-17T08:01:15.742Z,32373
2018-04-17T08:01:45.835Z,32477
2018-04-17T08:02:15.814Z,32583
2018-04-17T08:02:45.917Z,32497
2018-04-17T08:03:15.874Z,32580
2018-04-17T08:03:45.923Z,32853
2018-04-17T08:04:15.935Z,32977
2018-04-17T08:04:45.990Z,33057
2018-04-17T08:05:15.987Z,33130
2018-04-17T08:05:46.055Z,33103
2018-04-17T08:06:16.094Z,33380
2018-04-17T08:06:46.101Z,33643
2018-04-17T08:07:16.109Z,33503
2018-04-17T08:07:46.175Z,33650
2018-04-17T08:08:16.265Z,33827
2018-04-17T08:08:46.224Z,33770
2018-04-17T08:09:16.262Z,33863
2018-04-17T08:09:46.338Z,33783
2018-04-17T08:10:16.336Z,33797
2018-04-17T08:10:46.398Z,34003
2018-04-17T08:11:16.422Z,34167
2018-04-17T08:11:46.482Z,34180
2018-04-17T08:12:16.442Z,34427
2018-04-17T08:12:46.518Z,34420
2018-04-17T08:13:16.521Z,34430
2018-04-17T08:13:46.593Z,34410
2018-04-17T08:14:16.594Z,34553
2018-04-17T08:14:46.615Z,34803
2018-04-17T08:15:16.675Z,34860
2018-04-17T08:15:46.726Z,35027
2018-04-17T08:16:16.734Z,35047
2018-04-17T08:16:46.763Z,35027
2018-04-17T08:17:16.760Z,35167
2018-04-17T08:17:46.906Z,35437
2018-04-17T08:18:16.869Z,35493
2018-04-17T08:18:46.882Z,35523
2018-04-17T08:19:16.857Z,35757
2018-04-17T08:19:46.953Z,35770
2018-04-17T08:20:16.995Z,35787
2018-04-17T08:20:47.041Z,35913
2018-04-17T08:21:17.036Z,36057
2018-04-17T08:21:47.098Z,36083
2018-04-17T08:22:17.079Z,36160
2018-04-17T08:22:47.149Z,36263
2018-04-17T08:23:17.171Z,36363
2018-04-17T08:23:47.216Z,36403
2018-04-17T08:24:17.225Z,36583
2018-04-17T08:24:47.268Z,36557
2018-04-17T08:25:17.289Z,36737
2018-04-17T08:25:47.333Z,36890
2018-04-17T08:26:17.317Z,36947
2018-04-17T08:26:47.413Z,37230
2018-04-17T08:27:17.403Z,37263
2018-04-17T08:27:47.496Z,37187
2018-04-17T08:28:17.439Z,37207
2018-04-17T08:28:47.496Z,37403
2018-04-17T08:29:17.497Z,37427
2018-04-17T08:29:47.581Z,37440
2018-04-17T08:30:17.592Z,37727
2018-04-17T08:30:47.604Z,37723
2018-04-17T08:31:17.628Z,37507
2018-04-17T08:31:47.706Z,37397
2018-04-17T08:32:17.688Z,37240
2018-04-17T08:32:47.736Z,37147
2018-04-17T08:33:17.809Z,37490
2018-04-17T08:33:47.785Z,37890
2018-04-17T08:34:17.781Z,37603
2018-04-17T08:34:47.847Z,37507
2018-04-17T08:35:17.843Z,37807
2018-04-17T08:35:47.888Z,38640
2018-04-17T08:36:17.956Z,38630
2018-04-17T08:36:47.993Z,38773
2018-04-17T08:37:17.994Z,38810
2018-04-17T08:37:48.287Z,38770
2018-04-17T08:38:18.026Z,38933
2018-04-17T08:38:48.073Z,38780
2018-04-17T08:39:18.106Z,39080
2018-04-17T08:39:48.134Z,39240
2018-04-17T08:40:18.214Z,39233
2018-04-17T08:40:48.231Z,39210
2018-04-17T08:41:18.251Z,39177
2018-04-17T08:41:48.275Z,38910
2018-04-17T08:42:18.274Z,38950
2018-04-17T08:42:48.400Z,38803
2018-04-17T08:43:18.342Z,39990
2018-04-17T08:43:48.403Z,40250
2018-04-17T08:44:18.415Z,40633
2018-04-17T08:44:48.505Z,40540
2018-04-17T08:45:18.527Z,40623
2018-04-17T08:45:48.546Z,40963
2018-04-17T08:46:18.561Z,41117
2018-04-17T08:46:48.586Z,41173
2018-04-17T08:47:18.615Z,41407
2018-04-17T08:47:48.741Z,41417
2018-04-17T08:48:18.668Z,41637
2018-04-17T08:48:48.783Z,41730
2018-04-17T08:49:18.731Z,41970
2018-04-17T08:49:48.768Z,42110
2018-04-17T08:50:18.775Z,42137
2018-04-17T08:50:48.814Z,42140
2018-04-17T08:51:18.835Z,42287
2018-04-17T08:51:48.902Z,42383
2018-04-17T08:52:18.892Z,42500
2018-04-17T08:52:48.973Z,42820
2018-04-17T08:53:18.971Z,42853
2018-04-17T08:53:49.008Z,42920
2018-04-17T08:54:19.022Z,42857
2018-04-17T08:54:49.062Z,42950
2018-04-17T08:55:19.128Z,42907
2018-04-17T08:55:49.178Z,42897
2018-04-17T08:56:19.154Z,43290
2018-04-17T08:56:49.242Z,43373
2018-04-17T08:57:19.235Z,43517
2018-04-17T08:57:49.317Z,43840
2018-04-17T08:58:19.318Z,44043
2018-04-17T08:58:49.359Z,44123
2018-04-17T08:59:19.344Z,44300
2018-04-17T08:59:49.415Z,44147
2018-04-17T09:00:19.450Z,44387
2018-04-17T09:00:49.495Z,44713
2018-04-17T09:01:19.472Z,45007
2018-04-17T09:01:49.549Z,45120
2018-04-17T09:02:19.539Z,45217
2018-04-17T09:02:49.621Z,45447
2018-04-17T09:03:19.594Z,45510
2018-04-17T09:03:49.697Z,45183
2018-04-17T09:04:19.689Z,45003
2018-04-17T09:04:49.743Z,44897
2018-04-17T09:05:19.762Z,44563
2018-04-17T09:05:49.819Z,45353
2018-04-17T09:06:19.762Z,45650
2018-04-17T09:06:49.873Z,45527
2018-04-17T09:07:19.832Z,45777
2018-04-17T09:07:49.932Z,46857
2018-04-17T09:08:19.904Z,45297
2018-04-17T09:08:49.954Z,45417
2018-04-17T09:09:19.942Z,32100
2018-04-17T09:09:50.052Z,46267
2018-04-17T09:10:20.013Z,46110
2018-04-17T09:10:50.130Z,45300
2018-04-17T09:11:20.103Z,45523
2018-04-17T09:11:50.139Z,45247
2018-04-17T09:12:20.182Z,43710
2018-04-17T09:12:50.190Z,46927
2018-04-17T09:13:20.264Z,11280
2018-04-17T09:13:50.260Z,8777
2018-04-17T09:14:20.298Z,8703
2018-04-17T09:14:50.308Z,22800
2018-04-17T09:15:20.365Z,14767
2018-04-17T09:15:50.428Z,34643
2018-04-17T09:16:20.389Z,41773
2018-04-17T09:16:50.485Z,15710
2018-04-17T09:17:20.465Z,20753
2018-04-17T09:17:50.553Z,14003
2018-04-17T09:18:20.572Z,22950
2018-04-17T09:18:50.619Z,47833
2018-04-17T09:19:20.559Z,16510
2018-04-17T09:19:50.681Z,29470
2018-04-17T09:20:20.621Z,48587
2018-04-17T09:20:50.730Z,33853
2018-04-17T09:21:20.684Z,45567
2018-04-17T09:21:50.754Z,21897
2018-04-17T09:22:20.752Z,48957
2018-04-17T09:22:50.818Z,26347
2018-04-17T09:23:20.831Z,22363
2018-04-17T09:23:50.872Z,13127
2018-04-17T09:24:20.906Z,20497
2018-04-17T09:24:50.919Z,48580
2018-04-17T09:25:20.945Z,42173
2018-04-17T09:25:50.986Z,47387
2018-04-17T09:26:21.059Z,47513
2018-04-17T09:26:51.078Z,47053
2018-04-17T09:27:21.102Z,46647
2018-04-17T09:27:51.112Z,46833
2018-04-17T09:28:21.168Z,47067
2018-04-17T09:28:51.186Z,47543
2018-04-17T09:29:21.236Z,47800
2018-04-17T09:29:51.277Z,47667
2018-04-17T09:30:21.268Z,47193
2018-04-17T09:30:51.291Z,29643
2018-04-17T09:31:21.376Z,45817
2018-04-17T09:31:51.386Z,40343
2018-04-17T09:32:21.413Z,47947
2018-04-17T09:32:51.452Z,49473
2018-04-17T09:33:21.546Z,48037
2018-04-17T09:33:51.553Z,40510
2018-04-17T09:34:21.556Z,11450
2018-04-17T09:34:51.555Z,10657
2018-04-17T09:35:21.551Z,10587
2018-04-17T09:35:51.667Z,37157
2018-04-17T09:36:21.618Z,49643
2018-04-17T09:36:51.672Z,48487
2018-04-17T09:37:21.707Z,48230
2018-04-17T09:37:51.751Z,48430
2018-04-17T09:38:21.767Z,49003
2018-04-17T09:38:51.790Z,48807
2018-04-17T09:39:21.808Z,48790
2018-04-17T09:39:51.846Z,48690
2018-04-17T09:40:21.888Z,48343
2018-04-17T09:40:51.909Z,48640
2018-04-17T09:41:21.986Z,49167
2018-04-17T09:41:51.991Z,48297
2018-04-17T09:42:21.984Z,49513
2018-04-17T09:42:52.107Z,49717
2018-04-17T09:43:22.077Z,49290
2018-04-17T09:43:52.125Z,49437
2018-04-17T09:44:22.158Z,48797
2018-04-17T09:44:52.153Z,49787
2018-04-17T09:45:22.232Z,48537
2018-04-17T09:45:52.218Z,39937
2018-04-17T09:46:22.247Z,46257
2018-04-17T09:46:52.320Z,46777
2018-04-17T09:47:22.308Z,46747
2018-04-17T09:47:52.379Z,45727
2018-04-17T09:48:22.424Z,47390
2018-04-17T09:48:52.418Z,47930
2018-04-17T09:49:22.443Z,48060
2018-04-17T09:49:52.577Z,29437
2018-04-17T09:50:22.520Z,36927
2018-04-17T09:50:52.580Z,27223
2018-04-17T09:51:22.648Z,49490
2018-04-17T09:51:52.641Z,20703
2018-04-17T09:52:22.639Z,48950
2018-04-17T09:52:52.710Z,34877
2018-04-17T09:53:22.718Z,9913
2018-04-17T09:53:52.741Z,9663
2018-04-17T09:54:22.763Z,12003
2018-04-17T09:54:52.839Z,52373
2018-04-17T09:55:22.844Z,52727
2018-04-17T09:55:52.920Z,52197
2018-04-17T09:56:22.950Z,51330
2018-04-17T09:56:52.947Z,50643
2018-04-17T09:57:22.958Z,45583
2018-04-17T09:57:53.044Z,50810
2018-04-17T09:58:23.076Z,51073
2018-04-17T09:58:53.055Z,50307
2018-04-17T09:59:23.081Z,22433
2018-04-17T09:59:53.105Z,29823
2018-04-17T10:00:23.155Z,9497
2018-04-17T10:00:53.223Z,8657
2018-04-17T10:01:23.186Z,10773
2018-04-17T10:01:53.300Z,45110
2018-04-17T10:02:23.250Z,15303
2018-04-17T10:02:53.338Z,11813
2018-04-17T10:03:23.352Z,16597
2018-04-17T10:03:53.410Z,10630
2018-04-17T10:04:23.371Z,16767
2018-04-17T10:04:53.440Z,53087
2018-04-17T10:05:23.429Z,52480
2018-04-17T10:05:53.478Z,51263
2018-04-17T10:06:23.480Z,51920
2018-04-17T10:06:53.592Z,52670
2018-04-17T10:07:23.535Z,52743
2018-04-17T10:07:53.618Z,23193
2018-04-17T10:08:23.658Z,47860
2018-04-17T10:08:53.719Z,19177
2018-04-17T10:09:23.663Z,13560
2018-04-17T10:09:53.714Z,42173
2018-04-17T10:10:23.735Z,16680
2018-04-17T10:10:53.760Z,10937
2018-04-17T10:11:23.832Z,19957
2018-04-17T10:11:53.829Z,11197
2018-04-17T10:12:23.853Z,10770
2018-04-17T10:12:53.891Z,11773
2018-04-17T10:13:23.926Z,14283
2018-04-17T10:13:54.029Z,53987
2018-04-17T10:14:23.963Z,53807
2018-04-17T10:14:54.030Z,24077
2018-04-17T10:15:24.100Z,27100
2018-04-17T10:15:54.079Z,45537
2018-04-17T10:16:24.150Z,12927
2018-04-17T10:16:54.139Z,45097
2018-04-17T10:17:24.201Z,12430
2018-04-17T10:17:54.195Z,8680
2018-04-17T10:18:24.289Z,7680
2018-04-17T10:18:54.261Z,7310
2018-04-17T10:19:24.273Z,7007
2018-04-17T10:19:54.346Z,6890
2018-04-17T10:20:24.374Z,6887
2018-04-17T10:20:54.408Z,7220
2018-04-17T10:21:24.449Z,7403
2018-04-17T10:21:54.515Z,7303
2018-04-17T10:22:24.493Z,7390
2018-04-17T10:22:54.559Z,7777
2018-04-17T10:23:24.572Z,8363
2018-04-17T10:23:54.567Z,9270
2018-04-17T10:24:24.653Z,10800
2018-04-17T10:24:54.695Z,55377
2018-04-17T10:25:24.706Z,55743
2018-04-17T10:25:54.696Z,55830
2018-04-17T10:26:24.767Z,53720
2018-04-17T10:26:54.766Z,54310
2018-04-17T10:27:24.765Z,54837
2018-04-17T10:27:54.826Z,54997
2018-04-17T10:28:24.863Z,53717
2018-04-17T10:28:54.874Z,55227
2018-04-17T10:29:24.887Z,55337
2018-04-17T10:29:54.936Z,42433
2018-04-17T10:30:24.947Z,26590
2018-04-17T10:30:54.998Z,42703
2018-04-17T10:31:25.012Z,38617
2018-04-17T10:31:55.066Z,20647
2018-04-17T10:32:25.071Z,53447
2018-04-17T10:32:55.165Z,54957
2018-04-17T10:33:25.203Z,54163
2018-04-17T10:33:55.261Z,54820
2018-04-17T10:34:25.203Z,54773
2018-04-17T10:34:55.280Z,54683
2018-04-17T10:35:25.267Z,54817
2018-04-17T10:35:55.387Z,42440
2018-04-17T10:36:25.364Z,9583
2018-04-17T10:36:55.409Z,8007
2018-04-17T10:37:25.417Z,7587
2018-04-17T10:37:55.535Z,8340
2018-04-17T10:38:25.555Z,9833
2018-04-17T10:38:55.537Z,53647
2018-04-17T10:39:25.543Z,52663